createdAt,value
2023-05-23T00:00:25.456Z,3.67
2023-05-23T00:02:54.254Z,3.73
2023-05-23T00:05:22.990Z,3.77
2023-05-23T00:07:51.294Z,3.47
2023-05-23T00:10:20.124Z,3.77
2023-05-23T00:12:49.884Z,3.30
2023-05-23T00:15:18.140Z,3.67
2023-05-23T00:17:47.100Z,3.97
2023-05-23T00:20:16.190Z,3.50
2023-05-23T00:22:44.566Z,4.30
2023-05-23T00:25:13.145Z,3.83
2023-05-23T00:27:41.499Z,3.90
2023-05-23T00:30:12.247Z,3.80
2023-05-23T00:32:40.588Z,3.90
2023-05-23T00:35:10.522Z,3.90
2023-05-23T00:37:38.709Z,3.70
2023-05-23T00:40:08.447Z,3.67
2023-05-23T00:42:36.697Z,3.87
2023-05-23T00:45:05.425Z,3.70
2023-05-23T00:47:35.254Z,3.70
2023-05-23T00:50:03.725Z,3.80
2023-05-23T00:52:32.405Z,3.83
2023-05-23T00:55:00.944Z,3.90
2023-05-23T00:57:29.706Z,3.70
2023-05-23T00:59:58.228Z,3.67
2023-05-23T01:02:27.938Z,4.17
2023-05-23T01:04:58.340Z,3.73
2023-05-23T01:07:26.784Z,3.90
2023-05-23T01:09:55.250Z,3.63
2023-05-23T01:12:32.703Z,3.47
2023-05-23T01:15:08.859Z,4.07
2023-05-23T01:17:45.400Z,3.90
2023-05-23T01:20:20.866Z,3.60
2023-05-23T01:23:06.960Z,3.83
2023-05-23T01:25:48.219Z,4.27
2023-05-23T01:28:20.674Z,3.70
2023-05-23T01:30:52.898Z,4.17
2023-05-23T01:33:22.938Z,3.90
2023-05-23T01:35:51.528Z,4.10
2023-05-23T01:38:19.830Z,3.60
2023-05-23T01:40:48.108Z,3.83
2023-05-23T01:43:18.134Z,3.50
2023-05-23T01:45:46.529Z,3.83
2023-05-23T01:48:16.206Z,3.80
2023-05-23T01:50:46.516Z,4.00
2023-05-23T01:53:17.092Z,3.80
2023-05-23T01:55:46.771Z,3.50
2023-05-23T01:58:15.450Z,3.53
2023-05-23T02:00:45.416Z,3.63
2023-05-23T02:03:13.983Z,3.97
2023-05-23T02:05:42.609Z,3.80
2023-05-23T02:08:11.083Z,3.40
2023-05-23T02:10:39.534Z,3.63
2023-05-23T02:13:07.917Z,3.30
2023-05-23T02:15:36.234Z,3.20
2023-05-23T02:18:06.720Z,3.50
2023-05-23T02:20:35.344Z,3.63
2023-05-23T02:23:03.662Z,3.73
2023-05-23T02:25:31.891Z,4.10
2023-05-23T02:28:00.472Z,3.70
2023-05-23T02:30:28.873Z,3.37
2023-05-23T02:32:58.215Z,4.40
2023-05-23T02:35:27.922Z,3.97
2023-05-23T02:37:56.362Z,3.70
2023-05-23T02:40:24.840Z,3.43
2023-05-23T02:42:53.253Z,3.63
2023-05-23T02:45:21.629Z,3.33
2023-05-23T02:47:50.033Z,3.50
2023-05-23T02:50:18.493Z,3.63
2023-05-23T02:52:49.360Z,3.53
2023-05-23T02:55:17.661Z,4.43
2023-05-23T02:57:46.001Z,4.00
2023-05-23T03:00:15.869Z,4.00
2023-05-23T03:02:44.328Z,4.37
2023-05-23T03:05:12.752Z,4.43
2023-05-23T03:07:41.228Z,3.63
2023-05-23T03:10:11.997Z,4.30
2023-05-23T03:12:40.939Z,3.37
2023-05-23T03:15:10.137Z,3.83
2023-05-23T03:17:38.696Z,3.70
2023-05-23T03:20:09.867Z,3.97
2023-05-23T03:22:38.314Z,4.67
2023-05-23T03:25:07.832Z,4.30
2023-05-23T03:27:37.562Z,4.67
2023-05-23T03:30:06.713Z,3.90
2023-05-23T03:32:35.159Z,4.20
2023-05-23T03:35:03.571Z,4.33
2023-05-23T03:37:32.028Z,4.13
2023-05-23T03:40:00.492Z,4.20
2023-05-23T03:42:29.873Z,4.30
2023-05-23T03:44:59.768Z,4.10
2023-05-23T03:47:28.167Z,4.30
2023-05-23T03:49:56.846Z,4.33
2023-05-23T03:52:25.333Z,4.17
2023-05-23T03:54:53.895Z,3.63
2023-05-23T03:57:23.006Z,4.47
2023-05-23T03:59:51.455Z,4.27
2023-05-23T04:02:22.079Z,4.43
2023-05-23T04:04:51.744Z,4.80
2023-05-23T04:07:19.983Z,4.10
2023-05-23T04:09:48.314Z,3.93
2023-05-23T04:12:16.739Z,4.27
2023-05-23T04:14:45.057Z,4.37
2023-05-23T04:17:13.599Z,4.83
2023-05-23T04:19:43.384Z,5.30
2023-05-23T04:22:11.837Z,4.60
2023-05-23T04:24:40.117Z,4.50
2023-05-23T04:27:08.661Z,4.73
2023-05-23T04:29:38.331Z,4.80
2023-05-23T04:32:08.157Z,4.17
2023-05-23T04:34:38.178Z,4.53
2023-05-23T04:37:09.722Z,4.90
2023-05-23T04:39:39.735Z,4.47
2023-05-23T04:42:08.567Z,4.80
2023-05-23T04:44:37.521Z,4.93
2023-05-23T04:47:09.059Z,4.57
2023-05-23T04:49:38.573Z,4.50
2023-05-23T04:52:08.305Z,4.67
2023-05-23T04:54:37.482Z,4.53
2023-05-23T04:57:06.323Z,4.10
2023-05-23T04:59:34.526Z,4.20
2023-05-23T05:02:02.881Z,4.97
2023-05-23T05:04:31.160Z,4.27
2023-05-23T05:06:59.453Z,4.20
2023-05-23T05:09:29.101Z,4.20
2023-05-23T05:11:57.310Z,4.10
2023-05-23T05:14:27.867Z,4.27
2023-05-23T05:16:57.832Z,4.13
2023-05-23T05:19:26.343Z,4.70
2023-05-23T05:21:54.596Z,4.27
2023-05-23T05:24:22.903Z,4.23
2023-05-23T05:26:52.554Z,4.00
2023-05-23T05:29:20.962Z,4.07
2023-05-23T05:31:49.266Z,4.33
2023-05-23T05:34:17.873Z,4.10
2023-05-23T05:36:48.114Z,4.43
2023-05-23T05:39:17.012Z,4.23
2023-05-23T05:41:45.258Z,4.27
2023-05-23T05:44:14.882Z,4.50
2023-05-23T05:46:43.206Z,4.33
2023-05-23T05:49:12.459Z,4.50
2023-05-23T05:51:40.993Z,3.97
2023-05-23T05:54:09.668Z,4.23
2023-05-23T05:56:37.837Z,3.77
2023-05-23T05:59:06.173Z,4.53
2023-05-23T06:01:36.277Z,4.83
2023-05-23T06:04:05.010Z,4.43
2023-05-23T06:06:33.427Z,4.60
2023-05-23T06:09:01.715Z,11.53
2023-05-23T06:11:30.018Z,14.50
2023-05-23T06:13:58.213Z,17.53
2023-05-23T06:16:26.756Z,9.97
2023-05-23T06:18:56.473Z,10.60
2023-05-23T06:21:24.938Z,7.80
2023-05-23T06:23:53.362Z,6.87
2023-05-23T06:26:21.707Z,7.17
2023-05-23T06:28:49.918Z,6.03
2023-05-23T06:31:18.231Z,10.10
2023-05-23T06:33:46.517Z,5.60
2023-05-23T06:36:16.257Z,6.40
2023-05-23T06:38:44.559Z,5.77
2023-05-23T06:41:12.856Z,8.77
2023-05-23T06:43:41.079Z,11.20
2023-05-23T06:46:09.368Z,7.77
2023-05-23T06:48:37.716Z,6.60
2023-05-23T06:51:06.191Z,8.43
2023-05-23T06:53:35.925Z,6.90
2023-05-23T06:56:04.142Z,7.20
2023-05-23T06:58:32.374Z,5.27
2023-05-23T07:01:00.747Z,5.90
2023-05-23T07:03:29.111Z,5.43
2023-05-23T07:05:57.419Z,6.10
2023-05-23T07:08:25.748Z,5.80
2023-05-23T07:10:55.468Z,6.40
2023-05-23T07:13:23.821Z,5.43
2023-05-23T07:15:52.023Z,5.40
2023-05-23T07:18:20.395Z,5.23
2023-05-23T07:20:48.751Z,4.87
2023-05-23T07:23:17.325Z,5.43
2023-05-23T07:26:01.186Z,4.63
2023-05-23T07:28:32.527Z,4.53
2023-05-23T07:31:00.801Z,5.13
2023-05-23T07:33:29.774Z,4.70
2023-05-23T07:35:58.114Z,5.80
2023-05-23T07:38:28.095Z,4.97
2023-05-23T07:41:07.288Z,4.67
2023-05-23T07:43:41.406Z,4.97
2023-05-23T07:46:09.704Z,5.30
2023-05-23T07:48:37.930Z,5.77
2023-05-23T07:51:06.202Z,5.80
2023-05-23T07:53:35.024Z,5.30
2023-05-23T07:56:03.307Z,4.37
2023-05-23T07:58:31.527Z,5.13
2023-05-23T08:01:01.119Z,4.77
2023-05-23T08:03:29.253Z,5.10
2023-05-23T08:05:57.485Z,8.23
2023-05-23T08:08:25.641Z,5.20
2023-05-23T08:10:53.815Z,5.03
2023-05-23T08:13:22.013Z,5.37
2023-05-23T08:15:50.261Z,5.73
2023-05-23T08:18:19.918Z,5.10
2023-05-23T08:20:48.114Z,4.60
2023-05-23T08:23:18.291Z,4.95
2023-05-23T08:25:46.419Z,4.85
2023-05-23T08:28:14.566Z,4.30
2023-05-23T08:30:43.067Z,4.65
2023-05-23T08:33:11.586Z,6.00
2023-05-23T08:35:41.684Z,6.43
2023-05-23T08:38:10.894Z,4.40
2023-05-23T08:40:40.606Z,5.03
2023-05-23T08:43:10.412Z,4.93
2023-05-23T08:45:39.904Z,5.10
2023-05-23T08:48:11.866Z,4.38
2023-05-23T08:50:44.083Z,6.45
2023-05-23T08:53:20.513Z,5.63
2023-05-23T08:55:51.179Z,5.07
2023-05-23T08:58:21.119Z,6.37
2023-05-23T09:00:50.167Z,4.73
2023-05-23T09:03:19.996Z,4.80
2023-05-23T09:05:50.839Z,4.90
2023-05-23T09:08:20.210Z,4.40
2023-05-23T09:10:49.862Z,4.30
2023-05-23T09:13:20.484Z,4.10
2023-05-23T09:16:04.811Z,4.90
2023-05-23T09:18:37.054Z,4.27
2023-05-23T09:21:07.248Z,4.47
2023-05-23T09:23:36.512Z,4.90
2023-05-23T09:26:05.702Z,5.43
2023-05-23T09:28:35.269Z,5.57
2023-05-23T09:31:04.320Z,5.60
2023-05-23T09:33:41.311Z,7.00
2023-05-23T09:36:11.121Z,6.90
2023-05-23T09:38:40.353Z,7.50
2023-05-23T09:41:09.194Z,6.07
2023-05-23T09:43:39.121Z,6.20
2023-05-23T09:46:09.737Z,6.37
2023-05-23T09:48:38.759Z,5.80
2023-05-23T09:51:07.708Z,6.87
2023-05-23T09:53:37.898Z,7.90
2023-05-23T09:56:06.678Z,6.30
2023-05-23T09:58:36.285Z,8.30
2023-05-23T10:01:05.012Z,7.20
2023-05-23T10:03:36.451Z,8.03
2023-05-23T10:06:11.812Z,6.57
2023-05-23T10:08:45.187Z,8.43
2023-05-23T10:11:52.227Z,7.90
2023-05-23T10:14:20.689Z,8.40
2023-05-23T10:17:00.942Z,8.40
2023-05-23T10:19:37.338Z,8.87
2023-05-23T10:22:10.022Z,8.30
2023-05-23T10:24:40.017Z,8.27
2023-05-23T10:27:08.776Z,9.60
2023-05-23T10:29:37.708Z,8.00
2023-05-23T10:32:08.023Z,8.23
2023-05-23T10:34:42.198Z,8.37
2023-05-23T10:37:19.244Z,8.70
2023-05-23T10:39:57.093Z,8.53
2023-05-23T10:42:44.471Z,7.77
2023-05-23T10:45:16.640Z,8.40
2023-05-23T10:47:45.303Z,9.60
2023-05-23T10:50:17.993Z,11.13
2023-05-23T10:52:46.269Z,10.60
2023-05-23T10:55:17.904Z,11.37
2023-05-23T10:57:46.790Z,12.10
2023-05-23T11:00:17.081Z,13.47
2023-05-23T11:03:02.004Z,13.00
2023-05-23T11:05:31.971Z,12.80
2023-05-23T11:08:11.003Z,12.90
2023-05-23T11:11:00.709Z,10.60
2023-05-23T11:14:00.084Z,11.43
2023-05-23T11:16:29.992Z,12.63
2023-05-23T11:19:25.623Z,12.67
2023-05-23T11:21:59.896Z,15.23
2023-05-23T11:24:49.941Z,11.93
2023-05-23T11:27:26.819Z,13.00
2023-05-23T11:30:03.609Z,11.80
2023-05-23T11:32:32.537Z,14.63
2023-05-23T11:35:02.222Z,13.70
2023-05-23T11:37:31.398Z,17.00
2023-05-23T11:40:00.219Z,13.43
2023-05-23T11:42:29.880Z,13.47
2023-05-23T11:44:58.184Z,14.17
2023-05-23T11:47:26.546Z,13.90
2023-05-23T11:49:54.779Z,14.00
2023-05-23T11:52:23.272Z,17.27
2023-05-23T11:54:52.988Z,14.20
2023-05-23T11:57:23.128Z,15.20
2023-05-23T11:59:53.423Z,11.50
2023-05-23T12:02:23.727Z,10.93
2023-05-23T12:04:52.804Z,13.30
2023-05-23T12:07:21.536Z,11.53
2023-05-23T12:09:50.301Z,12.30
2023-05-23T12:12:20.602Z,12.40
2023-05-23T12:14:49.098Z,12.67
2023-05-23T12:17:19.403Z,12.87
2023-05-23T12:19:48.146Z,11.27
2023-05-23T12:22:16.718Z,12.80
2023-05-23T12:24:48.532Z,13.50
2023-05-23T12:27:18.937Z,12.60
2023-05-23T12:29:52.957Z,10.83
2023-05-23T12:32:26.692Z,12.33
2023-05-23T12:34:55.244Z,12.50
2023-05-23T12:37:24.541Z,12.27
2023-05-23T12:39:53.289Z,15.13
2023-05-23T12:42:21.850Z,14.47
2023-05-23T12:44:53.575Z,11.70
2023-05-23T12:47:23.583Z,11.83
2023-05-23T12:49:52.418Z,10.93
2023-05-23T12:52:21.240Z,12.07
2023-05-23T12:54:49.824Z,10.37
2023-05-23T12:57:18.365Z,10.97
2023-05-23T12:59:46.984Z,10.53
2023-05-23T13:02:15.620Z,9.80
2023-05-23T13:04:45.796Z,14.47
2023-05-23T13:07:14.190Z,10.27
2023-05-23T13:09:42.838Z,10.13
2023-05-23T13:12:12.651Z,9.93
2023-05-23T13:14:41.319Z,10.67
2023-05-23T13:17:10.073Z,10.10
2023-05-23T13:19:39.427Z,11.00
2023-05-23T13:22:10.717Z,11.40
2023-05-23T13:24:39.591Z,10.83
2023-05-23T13:27:08.752Z,13.10
2023-05-23T13:29:37.384Z,13.90
2023-05-23T13:32:06.494Z,16.03
2023-05-23T13:34:37.668Z,13.83
2023-05-23T13:37:06.915Z,14.03
2023-05-23T13:39:36.965Z,14.40
2023-05-23T13:42:05.616Z,12.60
2023-05-23T13:44:34.030Z,14.47
2023-05-23T13:47:13.279Z,14.33
2023-05-23T13:49:42.032Z,16.37
2023-05-23T13:52:10.652Z,16.23
2023-05-23T13:54:41.580Z,15.50
2023-05-23T13:57:10.020Z,14.20
2023-05-23T13:59:38.410Z,16.80
2023-05-23T14:02:08.253Z,17.57
2023-05-23T14:04:36.867Z,14.40
2023-05-23T14:07:05.367Z,15.70
2023-05-23T14:09:33.728Z,14.23
2023-05-23T14:12:03.387Z,14.13
2023-05-23T14:14:31.773Z,15.83
2023-05-23T14:16:59.990Z,14.83
2023-05-23T14:19:28.307Z,15.07
2023-05-23T14:21:56.722Z,15.87
2023-05-23T14:24:24.969Z,14.50
2023-05-23T14:26:53.280Z,14.20
2023-05-23T14:29:23.005Z,13.63
2023-05-23T14:31:51.345Z,13.83
2023-05-23T14:34:19.621Z,13.70
2023-05-23T14:36:48.078Z,14.67
2023-05-23T14:39:16.859Z,14.57
2023-05-23T14:41:46.852Z,13.53
2023-05-23T14:44:15.115Z,14.03
2023-05-23T14:46:48.570Z,13.50
2023-05-23T14:49:17.116Z,13.57
2023-05-23T14:51:50.406Z,13.80
2023-05-23T14:54:20.672Z,13.90
2023-05-23T14:56:51.172Z,11.47
2023-05-23T14:59:21.825Z,12.50
2023-05-23T15:01:51.830Z,13.80
2023-05-23T15:04:20.513Z,13.23
2023-05-23T15:06:48.904Z,12.77
2023-05-23T15:09:18.032Z,10.77
2023-05-23T15:11:49.388Z,9.97
2023-05-23T15:14:17.747Z,10.07
2023-05-23T15:16:48.750Z,10.60
2023-05-23T15:19:18.661Z,11.00
2023-05-23T15:21:51.056Z,10.13
2023-05-23T15:24:20.798Z,10.30
2023-05-23T15:26:49.091Z,10.07
2023-05-23T15:29:18.290Z,11.03
2023-05-23T15:31:46.698Z,13.90
2023-05-23T15:34:15.050Z,11.40
2023-05-23T15:36:44.864Z,11.50
2023-05-23T15:39:13.213Z,12.27
2023-05-23T15:41:41.892Z,11.93
2023-05-23T15:44:12.608Z,15.30
2023-05-23T15:46:42.422Z,14.07
2023-05-23T15:49:21.655Z,11.73
2023-05-23T15:51:56.109Z,12.57
2023-05-23T15:54:24.459Z,12.03
2023-05-23T15:56:52.691Z,11.43
2023-05-23T15:59:21.170Z,12.43
2023-05-23T16:01:49.612Z,13.90
2023-05-23T16:04:18.028Z,13.83
2023-05-23T16:06:46.369Z,14.37
2023-05-23T16:09:15.944Z,11.23
2023-05-23T16:11:44.341Z,11.40
2023-05-23T16:14:12.622Z,10.97
2023-05-23T16:16:40.971Z,10.97
2023-05-23T16:19:09.389Z,9.30
2023-05-23T16:21:37.938Z,9.63
2023-05-23T16:24:07.033Z,8.77
2023-05-23T16:26:36.694Z,9.57
2023-05-23T16:29:04.985Z,8.97
2023-05-23T16:31:33.259Z,8.80
2023-05-23T16:34:01.843Z,8.53
2023-05-23T16:36:30.083Z,8.60
2023-05-23T16:38:58.467Z,8.10
2023-05-23T16:41:26.808Z,8.80
2023-05-23T16:43:56.388Z,8.27
2023-05-23T16:46:24.692Z,7.67
2023-05-23T16:48:52.953Z,8.07
2023-05-23T16:51:21.211Z,7.67
2023-05-23T16:53:49.508Z,7.80
2023-05-23T16:56:17.761Z,7.70
2023-05-23T16:58:46.015Z,7.20
2023-05-23T17:01:16.912Z,8.20
2023-05-23T17:03:45.297Z,9.13
2023-05-23T17:06:13.657Z,9.40
2023-05-23T17:08:42.093Z,8.47
2023-05-23T17:11:10.470Z,10.17
2023-05-23T17:13:38.749Z,9.73
2023-05-23T17:16:07.067Z,10.67
2023-05-23T17:18:36.852Z,9.80
2023-05-23T17:21:05.149Z,9.97
2023-05-23T17:23:33.311Z,7.50
2023-05-23T17:26:01.557Z,6.13
2023-05-23T17:28:30.368Z,5.93
2023-05-23T17:30:58.819Z,6.00
2023-05-23T17:33:27.171Z,6.20
2023-05-23T17:35:57.094Z,6.33
2023-05-23T17:38:25.621Z,7.40
2023-05-23T17:40:54.096Z,8.20
2023-05-23T17:43:22.394Z,15.73
2023-05-23T17:45:50.819Z,7.67
2023-05-23T17:48:19.029Z,7.33
2023-05-23T17:50:47.253Z,7.80
2023-05-23T17:53:16.957Z,7.47
2023-05-23T17:55:45.326Z,8.30
2023-05-23T17:58:13.728Z,7.97
2023-05-23T18:00:42.622Z,7.63
2023-05-23T18:03:11.316Z,8.47
2023-05-23T18:05:39.903Z,8.83
2023-05-23T18:08:08.329Z,9.03
2023-05-23T18:10:37.983Z,9.17
2023-05-23T18:13:06.201Z,9.50
2023-05-23T18:15:34.554Z,10.27
2023-05-23T18:18:02.841Z,10.47
2023-05-23T18:20:31.114Z,9.77
2023-05-23T18:22:59.354Z,9.77
2023-05-23T18:25:28.396Z,9.70
2023-05-23T18:27:59.852Z,9.23
2023-05-23T18:30:28.684Z,9.27
2023-05-23T18:32:57.189Z,8.43
2023-05-23T18:35:26.178Z,8.60
2023-05-23T18:37:55.156Z,10.17
2023-05-23T18:40:24.266Z,10.80
2023-05-23T18:42:52.745Z,10.00
2023-05-23T18:45:22.486Z,8.63
2023-05-23T18:47:51.248Z,8.73
2023-05-23T18:50:20.373Z,9.10
2023-05-23T18:52:48.752Z,9.60
2023-05-23T18:55:17.588Z,9.87
2023-05-23T18:57:45.884Z,10.43
2023-05-23T19:00:15.035Z,9.47
2023-05-23T19:02:45.787Z,9.37
2023-05-23T19:05:14.329Z,8.63
2023-05-23T19:07:42.594Z,8.13
2023-05-23T19:10:11.732Z,8.30
2023-05-23T19:12:40.832Z,7.77
2023-05-23T19:15:11.412Z,8.37
2023-05-23T19:17:39.824Z,8.57
2023-05-23T19:20:10.344Z,8.20
2023-05-23T19:22:50.742Z,8.73
2023-05-23T19:25:19.859Z,7.73
2023-05-23T19:27:48.168Z,7.27
2023-05-23T19:30:16.722Z,8.43
2023-05-23T19:32:45.063Z,9.17
2023-05-23T19:35:16.845Z,8.20
2023-05-23T19:37:45.399Z,9.13
2023-05-23T19:40:14.649Z,9.47
2023-05-23T19:42:42.848Z,8.27
2023-05-23T19:45:12.276Z,8.47
2023-05-23T19:47:40.927Z,7.47
2023-05-23T19:50:12.746Z,18.73
2023-05-23T19:52:43.031Z,23.43
2023-05-23T19:55:11.819Z,16.37
2023-05-23T19:57:40.319Z,10.63
2023-05-23T20:00:14.849Z,8.97
2023-05-23T20:02:44.664Z,9.13
2023-05-23T20:05:13.169Z,8.13
2023-05-23T20:07:43.152Z,8.40
2023-05-23T20:10:12.163Z,8.90
2023-05-23T20:12:40.870Z,8.20
2023-05-23T20:15:10.226Z,8.07
2023-05-23T20:17:38.953Z,7.47
2023-05-23T20:20:08.901Z,7.77
2023-05-23T20:22:37.433Z,7.37
2023-05-23T20:25:08.476Z,8.10
2023-05-23T20:27:36.856Z,9.37
2023-05-23T20:30:06.279Z,7.23
2023-05-23T20:32:34.967Z,8.87
2023-05-23T20:35:03.694Z,7.60
2023-05-23T20:37:32.080Z,7.53
2023-05-23T20:40:00.667Z,8.10
2023-05-23T20:42:31.939Z,8.00
2023-05-23T20:45:00.470Z,7.13
2023-05-23T20:47:29.005Z,7.97
2023-05-23T20:49:58.225Z,7.53
2023-05-23T20:52:26.968Z,6.97
2023-05-23T20:54:55.703Z,8.00
2023-05-23T20:57:23.992Z,6.30
2023-05-23T20:59:54.311Z,6.23
2023-05-23T21:02:22.974Z,7.20
2023-05-23T21:04:51.386Z,7.63
2023-05-23T21:07:19.912Z,7.27
2023-05-23T21:09:48.338Z,6.67
2023-05-23T21:12:16.795Z,6.87
2023-05-23T21:14:45.261Z,6.77
2023-05-23T21:17:16.035Z,6.70
2023-05-23T21:19:44.709Z,5.80
2023-05-23T21:22:13.198Z,7.00
2023-05-23T21:24:41.998Z,6.43
2023-05-23T21:27:10.745Z,6.77
2023-05-23T21:29:39.077Z,6.00
2023-05-23T21:32:07.657Z,6.57
2023-05-23T21:34:37.631Z,6.33
2023-05-23T21:37:06.268Z,6.50
2023-05-23T21:39:50.005Z,6.20
2023-05-23T21:42:20.705Z,5.73
2023-05-23T21:44:49.406Z,6.57
2023-05-23T21:47:17.690Z,6.53
2023-05-23T21:49:47.582Z,7.00
2023-05-23T21:52:15.944Z,6.73
2023-05-23T21:54:47.140Z,6.87
2023-05-23T21:57:15.856Z,6.27
2023-05-23T21:59:44.502Z,5.70
2023-05-23T22:02:13.037Z,5.60
2023-05-23T22:04:41.654Z,5.27
2023-05-23T22:07:11.528Z,5.50
2023-05-23T22:09:40.112Z,6.10
2023-05-23T22:12:09.051Z,6.43
2023-05-23T22:14:37.604Z,5.80
2023-05-23T22:17:06.342Z,5.77
2023-05-23T22:19:34.976Z,5.87
2023-05-23T22:22:03.775Z,4.80
2023-05-23T22:24:34.939Z,5.00
2023-05-23T22:27:04.311Z,4.40
2023-05-23T22:29:36.217Z,5.30
2023-05-23T22:32:05.001Z,5.37
2023-05-23T22:34:33.863Z,5.17
2023-05-23T22:37:02.507Z,4.73
2023-05-23T22:39:30.976Z,6.00
2023-05-23T22:42:01.047Z,5.47
2023-05-23T22:44:29.641Z,4.63
2023-05-23T22:46:59.846Z,4.50
2023-05-23T22:49:30.233Z,5.67
2023-05-23T22:51:59.434Z,5.00
2023-05-23T22:54:28.214Z,4.37
2023-05-23T22:56:56.712Z,5.37
2023-05-23T22:59:26.779Z,5.03
2023-05-23T23:01:55.384Z,4.57
2023-05-23T23:04:25.632Z,5.80
2023-05-23T23:06:54.928Z,4.77
2023-05-23T23:09:23.439Z,5.47
2023-05-23T23:11:52.040Z,4.37
2023-05-23T23:14:21.386Z,4.87
2023-05-23T23:16:51.352Z,3.73
2023-05-23T23:19:19.907Z,4.90
2023-05-23T23:21:48.774Z,4.60
2023-05-23T23:24:17.886Z,5.30
2023-05-23T23:26:46.415Z,5.00
2023-05-23T23:29:14.837Z,4.40
2023-05-23T23:31:43.545Z,4.50
2023-05-23T23:34:13.494Z,4.00
2023-05-23T23:36:41.845Z,4.70
2023-05-23T23:39:10.203Z,4.87
2023-05-23T23:41:38.647Z,4.60
2023-05-23T23:44:06.868Z,4.73
2023-05-23T23:46:35.268Z,5.07
2023-05-23T23:49:03.711Z,4.47
2023-05-23T23:51:33.403Z,4.80
2023-05-23T23:54:01.612Z,4.30
2023-05-23T23:56:29.867Z,5.20
2023-05-23T23:58:58.001Z,5.50
